Estación Meteorológica Peña el Pijo (Robertgarden) [ 09/26/18 05:30:20 CEST ]

Fecha Hora Presion(HPa) Temp (°C) Humedad % Rocio (°C) Viento ( m/s) Direccion Lluvia 1Hora(mm) Lluvia 24H(mm) LLuvia Total(mm)
2018-Sep-11 01:01:51 1016.100 15.5 86 13.2       1.03 344.98
2018-Sep-11 02:01:43 1015.600 15.6 87 13.5         344.98
2018-Sep-11 03:01:39 1015.500 15.3 87 13.2         344.98
2018-Sep-11 04:04:32 1015.500 15.2 88 13.2         344.98
2018-Sep-11 05:01:41 1015.300 14.7 88 12.7         344.98
2018-Sep-11 06:01:39 1015.200 14.8 89 13.0         344.98
2018-Sep-11 07:01:43 1015.300 14.6 90 13.0         344.98
2018-Sep-11 08:01:57 1015.500 14.1 90 12.5         344.98
2018-Sep-11 09:01:50 1015.600 14.9 91 13.5         344.98
2018-Sep-11 10:02:00 1015.500 17.0 90 15.4         344.98
2018-Sep-11 11:01:52 1015.800 19.6 83 16.6         344.98
2018-Sep-11 12:01:41 1015.800 19.9 78 16.0         344.98
2018-Sep-11 13:01:38 1015.900 19.5 76 15.2         344.98
2018-Sep-11 14:01:54 1016.000 19.0 79 15.3         344.98
2018-Sep-11 15:01:44 1015.600 19.9 79 16.2         344.98
2018-Sep-11 16:01:46 1015.100 20.9 75 16.3         344.98
2018-Sep-11 17:02:03 1015.100 19.4 78 15.5         344.98
2018-Sep-11 18:01:49 1014.500 19.5 79 15.8 0.6 NE     344.98
2018-Sep-11 19:01:40 1014.500 19.3 80 15.8         344.98
2018-Sep-11 20:01:42 1014.500 19.0 79 15.3         344.98
2018-Sep-11 21:01:51 1015.100 17.4 82 14.3         344.98
2018-Sep-11 22:01:50 1015.600 16.6 85 14.1         344.98
2018-Sep-11 23:01:45 1015.600 15.8 87 13.7         344.98

Temperatura Máxima:20°    Temperatura Mínima:14°
Presión Máxima:1016.100 Hpa    Presión Mínima:1014.500 Hpa


Volver